Time;durP1;ratioP1;P1;durP2;ratioP2;P2;SDS_P1;SDS_P2;PMS_P1;PMS_P2;Temp;Humidity;BMP_temperature;BMP_pressure;BME280_temperature;BME280_humidity;BME280_pressure;Samples;Min_cycle;Max_cycle;Signal;HPM_P1;HPM_P2
2022/01/13 00:00:33;;;;;;;73.70;21.35;;;4.90;99.90;;;;;;4995201;28;20040;-71
2022/01/13 00:03:00;;;;;;;73.20;21.23;;;4.90;99.90;;;;;;4995556;28;20126;-73
2022/01/13 00:05:29;;;;;;;86.25;23.08;;;5.60;99.90;;;;;;4995641;28;20042;-72
2022/01/13 00:07:57;;;;;;;97.78;22.63;;;4.90;99.90;;;;;;4995480;28;20049;-72
2022/01/13 00:10:24;;;;;;;83.10;21.77;;;5.00;99.90;;;;;;4995637;28;20418;-72
2022/01/13 00:12:58;;;;;;;82.65;21.70;;;4.90;99.90;;;;;;4995336;28;20041;-73
2022/01/13 00:15:47;;;;;;;87.20;21.17;;;4.90;99.90;;;;;;4994920;28;20038;-72
2022/01/13 00:18:15;;;;;;;68.78;19.77;;;4.90;99.90;;;;;;4994703;28;20413;-75
2022/01/13 00:26:14;;;;;;;76.57;19.05;;;5.30;99.90;;;;;;4995464;28;20112;-72
2022/01/13 00:28:40;;;;;;;61.85;17.52;;;5.00;99.90;;;;;;4994773;28;20049;-73
2022/01/13 00:31:07;;;;;;;58.40;16.17;;;5.00;99.90;;;;;;4994861;28;20079;-73
2022/01/13 00:33:33;;;;;;;65.28;19.42;;;5.00;99.90;;;;;;4995063;28;20074;-72
2022/01/13 00:36:00;;;;;;;64.50;17.35;;;5.00;99.90;;;;;;4994836;28;20523;-72
2022/01/13 00:38:27;;;;;;;56.58;18.65;;;5.00;99.90;;;;;;4995030;28;20053;-72
2022/01/13 00:40:54;;;;;;;81.97;20.23;;;5.00;99.90;;;;;;4995721;28;20558;-71
2022/01/13 00:43:20;;;;;;;82.55;20.73;;;5.00;99.90;;;;;;4993059;28;20061;-72
2022/01/13 00:45:48;;;;;;;80.05;19.98;;;4.90;99.90;;;;;;4998218;28;20046;-72
2022/01/13 00:48:14;;;;;;;89.75;21.10;;;5.00;99.90;;;;;;4995804;28;20054;-72
2022/01/13 00:50:39;;;;;;;90.95;19.70;;;4.90;99.90;;;;;;4995058;28;20043;-72
2022/01/13 00:53:05;;;;;;;67.20;19.15;;;5.00;99.90;;;;;;4994675;28;20100;-70
2022/01/13 00:56:16;;;;;;;82.63;21.35;;;4.90;99.90;;;;;;4994935;28;20130;-71
2022/01/13 00:58:17;;;;;;;96.50;20.77;;;4.90;99.90;;;;;;4990889;28;20050;-72
2022/01/13 01:00:43;;;;;;;97.53;21.25;;;4.90;99.90;;;;;;4993971;28;20132;-72
2022/01/13 01:03:10;;;;;;;102.90;21.45;;;5.00;99.90;;;;;;4994199;28;20038;-72
2022/01/13 01:05:36;;;;;;;85.97;20.15;;;4.90;99.90;;;;;;4994203;28;20492;-71
2022/01/13 01:08:03;;;;;;;93.93;21.48;;;4.90;99.90;;;;;;4994596;28;20153;-72
2022/01/13 01:10:29;;;;;;;78.60;21.08;;;4.90;99.90;;;;;;4994412;28;20045;-72
2022/01/13 01:12:55;;;;;;;95.00;21.60;;;4.90;99.90;;;;;;4994334;28;20501;-72
2022/01/13 01:15:21;;;;;;;79.20;18.90;;;4.90;99.90;;;;;;4993980;28;20121;-71
2022/01/13 01:17:52;;;;;;;75.85;18.98;;;4.90;99.90;;;;;;4993923;28;20053;-71
2022/01/13 01:20:19;;;;;;;98.22;22.52;;;4.90;99.90;;;;;;4993936;28;20054;-72
2022/01/13 01:25:45;;;;;;;86.25;21.88;;;4.90;99.90;;;;;;4994123;28;20062;-71
2022/01/13 01:28:03;;;;;;;90.15;21.13;;;4.90;99.90;;;;;;4993565;28;20050;-71
2022/01/13 01:32:54;;;;;;;72.07;18.90;;;4.90;99.90;;;;;;4992947;28;20070;-71
2022/01/13 01:35:25;;;;;;;70.78;19.70;;;4.90;99.90;;;;;;4993998;28;20447;-72
2022/01/13 01:37:51;;;;;;;64.60;18.58;;;4.90;99.90;;;;;;4993715;28;20054;-71
2022/01/13 01:40:17;;;;;;;60.08;17.55;;;4.90;99.90;;;;;;4993810;28;20488;-72
2022/01/13 01:42:44;;;;;;;78.10;19.77;;;4.90;99.90;;;;;;4992326;28;20050;-71
2022/01/13 01:45:11;;;;;;;67.18;17.50;;;4.80;99.90;;;;;;4993781;28;20050;-71
2022/01/13 01:47:36;;;;;;;52.20;14.82;;;4.90;99.90;;;;;;4993006;28;20042;-72
2022/01/13 01:50:17;;;;;;;69.00;18.70;;;4.90;99.90;;;;;;4992358;28;20049;-72
2022/01/13 01:52:48;;;;;;;67.13;18.48;;;4.90;99.90;;;;;;4993513;28;20077;-72
2022/01/13 01:55:14;;;;;;;60.55;16.75;;;4.90;99.90;;;;;;4993388;28;20129;-72
2022/01/13 01:57:40;;;;;;;88.90;21.38;;;4.90;99.90;;;;;;4993533;28;20400;-71
2022/01/13 02:00:10;;;;;;;69.90;19.58;;;5.70;99.90;;;;;;4993338;28;20056;-72
2022/01/13 02:02:36;;;;;;;66.63;18.35;;;4.90;99.90;;;;;;4991894;28;20096;-71
2022/01/13 02:05:02;;;;;;;65.10;18.55;;;4.90;99.90;;;;;;4993110;28;20406;-70
2022/01/13 02:07:28;;;;;;;67.07;20.13;;;4.90;99.90;;;;;;4993468;28;20046;-72
2022/01/13 02:09:53;;;;;;;62.42;18.52;;;4.90;99.90;;;;;;4993464;28;20058;-72
2022/01/13 02:12:37;;;;;;;66.10;18.60;;;4.90;99.90;;;;;;4993513;28;20073;-72
2022/01/13 02:17:40;;;;;;;61.88;19.17;;;4.90;99.90;;;;;;4991890;28;20069;-72
2022/01/13 02:20:07;;;;;;;62.95;18.65;;;4.90;99.90;;;;;;4992959;28;20043;-71
2022/01/13 02:22:33;;;;;;;55.72;16.30;;;4.90;99.90;;;;;;4992989;28;20133;-71
2022/01/13 02:24:59;;;;;;;60.55;17.38;;;4.90;99.90;;;;;;4993159;28;20121;-71
2022/01/13 02:27:25;;;;;;;52.03;17.70;;;4.90;99.90;;;;;;4993144;28;20053;-72
2022/01/13 02:29:51;;;;;;;66.90;18.27;;;4.90;99.90;;;;;;4991568;28;20058;-71
2022/01/13 02:32:17;;;;;;;61.70;17.60;;;4.90;99.90;;;;;;4993277;28;20065;-73
2022/01/13 02:34:43;;;;;;;65.25;18.45;;;4.90;99.90;;;;;;4992787;28;20115;-72
2022/01/13 02:37:09;;;;;;;51.13;15.65;;;4.90;99.90;;;;;;4991731;28;20488;-72
2022/01/13 02:39:35;;;;;;;49.03;15.98;;;5.00;99.90;;;;;;4993030;28;20042;-71
2022/01/13 02:42:03;;;;;;;50.13;15.98;;;5.00;99.90;;;;;;4992722;28;20050;-72
2022/01/13 02:44:30;;;;;;;54.08;17.17;;;5.00;99.90;;;;;;4977510;28;20054;-73
2022/01/13 02:49:42;;;;;;;53.72;15.48;;;5.00;99.90;;;;;;4917378;29;20551;-72
2022/01/13 02:52:08;;;;;;;42.78;14.35;;;5.00;99.90;;;;;;4917822;29;20052;-69
2022/01/13 02:54:33;;;;;;;62.83;15.38;;;5.00;99.90;;;;;;4917796;29;20067;-71
2022/01/13 02:56:59;;;;;;;49.20;15.77;;;5.00;99.90;;;;;;4917419;29;20059;-71
2022/01/13 02:59:25;;;;;;;53.25;16.55;;;5.10;99.90;;;;;;4917738;29;20059;-71
2022/01/13 03:01:50;;;;;;;53.10;16.80;;;5.00;99.90;;;;;;4901838;29;20210;-72
2022/01/13 03:04:16;;;;;;;55.35;15.70;;;5.00;99.90;;;;;;4917487;29;20048;-72
2022/01/13 03:06:42;;;;;;;72.75;19.85;;;5.00;99.90;;;;;;4917122;29;20048;-71
2022/01/13 03:09:10;;;;;;;51.13;16.42;;;5.00;99.90;;;;;;4917516;29;20119;-69
2022/01/13 03:11:37;;;;;;;62.83;17.80;;;5.20;99.90;;;;;;4917406;29;20466;-72
2022/01/13 03:14:11;;;;;;;71.63;17.17;;;5.00;99.90;;;;;;4917502;29;20048;-72
2022/01/13 03:16:38;;;;;;;56.67;17.60;;;5.00;99.90;;;;;;4917154;29;20060;-72
2022/01/13 03:19:04;;;;;;;54.00;16.52;;;5.00;99.90;;;;;;4917268;29;20071;-71
2022/01/13 03:21:30;;;;;;;54.10;17.35;;;5.00;99.90;;;;;;4916892;29;20056;-71
2022/01/13 03:23:55;;;;;;;58.60;18.33;;;5.00;99.90;;;;;;4917422;29;20054;-72
2022/01/13 03:26:22;;;;;;;59.90;18.13;;;5.00;99.90;;;;;;4942810;28;20068;-72
2022/01/13 03:29:03;;;;;;;60.65;17.45;;;5.00;99.90;;;;;;4978979;28;20046;-72
2022/01/13 03:31:29;;;;;;;76.68;20.60;;;5.10;99.90;;;;;;4996141;28;20056;-73
2022/01/13 03:33:54;;;;;;;61.85;19.92;;;5.00;99.90;;;;;;4996257;28;20038;-71
2022/01/13 03:36:20;;;;;;;78.78;21.20;;;5.00;99.90;;;;;;4995680;28;20050;-71
2022/01/13 03:38:46;;;;;;;67.93;18.58;;;5.00;99.90;;;;;;4995845;28;20511;-73
2022/01/13 03:41:13;;;;;;;58.10;19.52;;;5.00;99.90;;;;;;4995790;28;20082;-76
2022/01/13 03:43:39;;;;;;;61.45;19.20;;;5.00;99.90;;;;;;4995573;28;20061;-73
2022/01/13 03:46:05;;;;;;;56.83;18.85;;;5.60;99.90;;;;;;4978475;28;20412;-73
2022/01/13 03:48:31;;;;;;;61.53;19.48;;;5.00;99.90;;;;;;4978630;28;20481;-73
2022/01/13 03:50:57;;;;;;;69.03;20.33;;;5.00;99.90;;;;;;4995528;28;20050;-73
2022/01/13 03:53:29;;;;;;;61.05;19.08;;;5.00;99.90;;;;;;4995534;28;20177;-73
2022/01/13 03:56:29;;;;;;;56.50;17.98;;;5.10;99.90;;;;;;4995730;28;20730;-75
2022/01/13 03:59:32;;;;;;;51.65;17.35;;;4.90;99.90;;;;;;4995615;28;20116;-75
2022/01/13 04:02:15;;;;;;;46.45;14.93;;;5.00;99.90;;;;;;4995383;28;20117;-76
2022/01/13 04:04:46;;;;;;;48.95;16.15;;;4.90;99.90;;;;;;4995681;28;20073;-75
2022/01/13 04:07:23;;;;;;;57.20;16.27;;;4.90;99.90;;;;;;4995213;28;20088;-72
2022/01/13 04:09:49;;;;;;;48.95;14.57;;;4.90;99.90;;;;;;4995547;28;20058;-72
2022/01/13 04:12:16;;;;;;;49.63;15.85;;;4.90;99.90;;;;;;4995154;28;20057;-72
2022/01/13 04:17:18;;;;;;;43.10;15.80;;;4.90;99.90;;;;;;4995370;28;20108;-72
2022/01/13 04:19:48;;;;;;;56.88;16.45;;;4.90;99.90;;;;;;4995329;28;20075;-73
2022/01/13 04:22:16;;;;;;;50.08;16.75;;;4.90;99.90;;;;;;4995260;28;20373;-74
2022/01/13 04:24:47;;;;;;;55.88;16.73;;;4.80;99.90;;;;;;4994905;28;20042;-74
2022/01/13 04:27:22;;;;;;;50.38;15.93;;;4.80;99.90;;;;;;4994709;28;20088;-72
2022/01/13 04:29:59;;;;;;;50.85;16.02;;;4.80;99.90;;;;;;4977910;28;20046;-71
2022/01/13 04:32:25;;;;;;;44.67;14.45;;;4.80;99.90;;;;;;4995226;28;20046;-72
2022/01/13 04:34:51;;;;;;;45.85;14.95;;;4.80;99.90;;;;;;4995051;28;20049;-72
2022/01/13 04:37:16;;;;;;;43.67;14.80;;;4.80;99.90;;;;;;4994985;28;20499;-73
2022/01/13 04:39:42;;;;;;;47.83;15.07;;;5.00;99.90;;;;;;4993041;28;20054;-74
2022/01/13 04:42:10;;;;;;;40.72;13.98;;;5.90;99.90;;;;;;4996831;28;20098;-74
2022/01/13 04:44:36;;;;;;;43.20;15.27;;;4.70;99.90;;;;;;4997345;28;20499;-73
2022/01/13 04:47:07;;;;;;;44.65;15.63;;;4.70;99.90;;;;;;4997145;28;20050;-72
2022/01/13 04:49:33;;;;;;;46.72;16.23;;;4.70;99.90;;;;;;4996089;28;20056;-72
2022/01/13 04:51:59;;;;;;;41.90;15.15;;;4.70;99.90;;;;;;4995203;28;20121;-72
2022/01/13 04:54:24;;;;;;;38.42;14.20;;;4.70;99.90;;;;;;4992744;28;20111;-71
2022/01/13 04:59:15;;;;;;;43.15;13.90;;;4.70;99.90;;;;;;4993693;28;20488;-72
2022/01/13 05:01:41;;;;;;;44.65;15.25;;;5.30;99.90;;;;;;4994646;28;20038;-73
2022/01/13 05:04:08;;;;;;;53.30;15.90;;;4.80;99.90;;;;;;4994579;28;20043;-71
2022/01/13 05:06:34;;;;;;;42.88;14.30;;;4.70;99.90;;;;;;4993708;28;20100;-71
2022/01/13 05:09:00;;;;;;;68.05;19.35;;;4.70;99.90;;;;;;4993979;28;20092;-73
2022/01/13 05:11:26;;;;;;;55.45;16.05;;;4.60;99.90;;;;;;4993981;28;20492;-72
2022/01/13 05:13:52;;;;;;;42.53;15.50;;;4.70;99.90;;;;;;4993314;28;20042;-73
2022/01/13 05:16:28;;;;;;;47.28;17.17;;;4.60;99.90;;;;;;4994550;28;20089;-72
2022/01/13 05:19:08;;;;;;;40.22;15.23;;;4.60;99.90;;;;;;4994454;28;20061;-70
2022/01/13 05:24:18;;;;;;;71.43;21.10;;;4.70;99.90;;;;;;4994086;28;20050;-72
2022/01/13 05:26:44;;;;;;;38.35;14.38;;;4.70;99.90;;;;;;4993546;28;20416;-72
2022/01/13 05:29:12;;;;;;;76.78;19.08;;;4.60;99.90;;;;;;4993937;28;20038;-71
2022/01/13 05:31:38;;;;;;;113.97;21.55;;;4.60;99.90;;;;;;4993821;28;20074;-74
2022/01/13 05:34:03;;;;;;;38.80;14.05;;;4.60;99.90;;;;;;4993852;28;20124;-72
2022/01/13 05:36:29;;;;;;;68.40;16.60;;;4.60;99.90;;;;;;4993547;28;20093;-72
2022/01/13 05:38:54;;;;;;;42.03;14.80;;;4.60;99.90;;;;;;4993929;28;20424;-72
2022/01/13 05:41:20;;;;;;;53.38;16.88;;;4.60;99.90;;;;;;4993611;28;20046;-72
2022/01/13 05:43:46;;;;;;;48.80;16.08;;;4.60;99.90;;;;;;4993559;28;20133;-72
2022/01/13 05:46:11;;;;;;;56.30;16.05;;;4.60;99.90;;;;;;4976361;28;20042;-73
2022/01/13 05:48:37;;;;;;;40.55;15.20;;;4.60;99.90;;;;;;4993536;28;20047;-71
2022/01/13 05:51:02;;;;;;;48.95;16.75;;;4.60;99.90;;;;;;4993217;28;20134;-71
2022/01/13 05:53:28;;;;;;;59.92;16.92;;;4.60;99.90;;;;;;4993888;28;20081;-72
2022/01/13 05:55:54;;;;;;;54.95;17.00;;;4.60;99.90;;;;;;4993386;28;20078;-72
2022/01/13 05:58:19;;;;;;;47.63;15.23;;;4.50;99.90;;;;;;4994494;28;20399;-73
2022/01/13 06:00:46;;;;;;;55.88;16.05;;;4.50;99.90;;;;;;4977828;28;20042;-71
2022/01/13 06:03:11;;;;;;;52.38;15.95;;;4.50;99.90;;;;;;4977517;28;20133;-72
2022/01/13 06:05:37;;;;;;;41.45;13.95;;;4.60;99.90;;;;;;4976829;28;20214;-73
2022/01/13 06:08:04;;;;;;;66.30;13.23;;;4.50;99.90;;;;;;4994033;28;20469;-73
2022/01/13 06:10:30;;;;;;;40.28;12.38;;;4.90;99.90;;;;;;4993483;28;20400;-71
2022/01/13 06:12:56;;;;;;;42.42;12.75;;;4.50;99.90;;;;;;4993308;28;20038;-72
2022/01/13 06:15:24;;;;;;;34.78;12.60;;;4.50;99.90;;;;;;4993279;28;20042;-72
2022/01/13 06:17:54;;;;;;;44.20;13.77;;;4.50;99.90;;;;;;4992991;28;20054;-76
2022/01/13 06:20:21;;;;;;;42.10;12.40;;;4.50;99.90;;;;;;4993216;28;20046;-75
2022/01/13 06:22:48;;;;;;;35.72;13.52;;;4.50;99.90;;;;;;4993095;28;20038;-73
2022/01/13 06:25:16;;;;;;;47.67;13.10;;;4.50;99.90;;;;;;4976204;28;20053;-72
2022/01/13 06:27:46;;;;;;;41.28;13.90;;;4.50;99.90;;;;;;4993099;28;20062;-72
2022/01/13 06:30:14;;;;;;;38.17;12.10;;;4.50;99.90;;;;;;4975714;28;20061;-72
2022/01/13 06:32:42;;;;;;;44.65;12.10;;;4.50;99.90;;;;;;4993332;28;20415;-72
2022/01/13 06:35:08;;;;;;;39.17;11.98;;;4.50;99.90;;;;;;4976002;28;20447;-72
2022/01/13 06:37:34;;;;;;;32.30;11.35;;;4.50;99.90;;;;;;4993079;28;20042;-72
2022/01/13 06:40:02;;;;;;;56.38;14.27;;;4.50;99.90;;;;;;4993500;28;20038;-72
2022/01/13 06:42:27;;;;;;;43.72;13.27;;;4.50;99.90;;;;;;4992480;28;20058;-72
2022/01/13 06:44:53;;;;;;;36.25;12.32;;;4.50;99.90;;;;;;4993210;28;20042;-71
2022/01/13 06:47:19;;;;;;;41.53;13.13;;;4.50;99.90;;;;;;4992708;28;20435;-72
2022/01/13 06:49:44;;;;;;;50.20;14.55;;;4.50;99.90;;;;;;4992940;28;20121;-73
2022/01/13 06:52:10;;;;;;;43.22;13.07;;;4.50;99.90;;;;;;4992703;28;20042;-72
2022/01/13 06:54:36;;;;;;;46.08;12.73;;;4.50;99.90;;;;;;4992796;28;20097;-71
2022/01/13 06:57:03;;;;;;;43.20;13.32;;;4.60;99.90;;;;;;4975372;28;20046;-72
2022/01/13 06:59:28;;;;;;;52.17;13.80;;;4.60;99.90;;;;;;4992630;28;20062;-72
2022/01/13 07:01:56;;;;;;;44.08;14.60;;;4.60;99.90;;;;;;4975553;28;20042;-72
2022/01/13 07:04:22;;;;;;;42.92;13.75;;;4.60;99.90;;;;;;4992895;28;20050;-72
2022/01/13 07:06:48;;;;;;;42.08;14.25;;;5.00;99.90;;;;;;4992676;28;20061;-72
2022/01/13 07:09:16;;;;;;;39.50;12.70;;;4.50;99.90;;;;;;4975389;28;20053;-71
2022/01/13 07:11:44;;;;;;;34.00;9.95;;;4.60;99.90;;;;;;4992811;28;20412;-70
2022/01/13 07:14:09;;;;;;;29.10;8.98;;;4.50;99.90;;;;;;4992124;28;20042;-72
2022/01/13 07:16:36;;;;;;;31.20;8.80;;;4.60;99.90;;;;;;4992501;28;20100;-71
2022/01/13 07:19:03;;;;;;;36.03;9.60;;;4.60;99.90;;;;;;4992741;28;20157;-70
2022/01/13 07:21:28;;;;;;;27.63;8.50;;;4.60;99.90;;;;;;4991888;28;20049;-71
2022/01/13 07:23:55;;;;;;;34.30;8.93;;;4.60;99.90;;;;;;4974071;28;20038;-71
2022/01/13 07:26:20;;;;;;;31.38;9.07;;;4.60;99.90;;;;;;4991695;28;20077;-72
2022/01/13 07:28:46;;;;;;;30.63;9.27;;;4.60;99.90;;;;;;4974110;28;20074;-72
2022/01/13 07:31:14;;;;;;;35.28;9.77;;;4.60;99.90;;;;;;4976973;28;20046;-69
2022/01/13 07:33:40;;;;;;;28.17;8.52;;;4.60;99.90;;;;;;4995029;28;20054;-71
2022/01/13 07:36:06;;;;;;;25.80;7.85;;;4.70;99.90;;;;;;4961410;28;20065;-71
2022/01/13 07:38:32;;;;;;;29.50;8.25;;;4.70;99.90;;;;;;4995046;28;20042;-71
2022/01/13 07:40:58;;;;;;;21.38;7.50;;;4.70;99.90;;;;;;4972610;28;20054;-72
2022/01/13 07:43:25;;;;;;;23.45;8.18;;;4.70;99.90;;;;;;4993290;28;20050;-72
2022/01/13 07:45:51;;;;;;;24.33;7.35;;;4.70;99.90;;;;;;4993399;28;20057;-72
2022/01/13 07:48:17;;;;;;;26.92;7.50;;;4.70;99.90;;;;;;4994154;28;20054;-77
2022/01/13 07:50:44;;;;;;;29.65;8.57;;;4.70;99.90;;;;;;4976055;28;20042;-70
2022/01/13 07:53:10;;;;;;;30.08;9.52;;;4.70;99.90;;;;;;4993722;28;20050;-69
2022/01/13 07:55:36;;;;;;;24.75;8.57;;;5.10;99.90;;;;;;4993606;28;20504;-73
2022/01/13 07:58:02;;;;;;;31.02;8.07;;;4.70;99.90;;;;;;4976144;28;20050;-71
2022/01/13 08:00:28;;;;;;;27.85;8.05;;;4.80;99.90;;;;;;4993907;28;20047;-72
2022/01/13 08:02:53;;;;;;;39.08;9.13;;;4.80;99.90;;;;;;4993540;28;20043;-71
2022/01/13 08:05:19;;;;;;;33.83;8.88;;;4.80;99.90;;;;;;4976550;28;20476;-71
2022/01/13 08:07:45;;;;;;;24.10;7.72;;;4.80;99.90;;;;;;4976047;28;20062;-72
2022/01/13 08:10:11;;;;;;;28.83;8.60;;;4.80;99.90;;;;;;4977052;28;20049;-72
2022/01/13 08:12:38;;;;;;;23.30;7.85;;;4.80;99.90;;;;;;4977222;28;20042;-71
2022/01/13 08:15:08;;;;;;;28.83;7.97;;;5.00;99.90;;;;;;4976786;28;20057;-72
2022/01/13 08:20:18;;;;;;;23.13;8.20;;;4.90;99.90;;;;;;4994096;28;20104;-72
2022/01/13 08:22:43;;;;;;;30.52;8.25;;;4.90;99.90;;;;;;4975627;28;20066;-75
2022/01/13 08:25:10;;;;;;;40.15;13.07;;;4.90;99.90;;;;;;4960449;28;20469;-74
2022/01/13 08:27:36;;;;;;;45.53;13.00;;;5.00;99.90;;;;;;4977371;28;20113;-75
2022/01/13 08:30:04;;;;;;;40.03;13.10;;;5.00;99.90;;;;;;4993860;28;20070;-73
2022/01/13 08:32:29;;;;;;;42.95;13.82;;;5.00;99.90;;;;;;4999900;28;20419;-73
2022/01/13 08:34:55;;;;;;;52.17;14.68;;;5.00;99.90;;;;;;5007137;28;20109;-75
2022/01/13 08:37:21;;;;;;;37.50;12.35;;;5.70;99.90;;;;;;4998481;28;20046;-74
2022/01/13 08:39:46;;;;;;;39.72;13.40;;;5.10;99.90;;;;;;4994442;28;20085;-73
2022/01/13 08:42:13;;;;;;;40.72;11.25;;;5.10;99.90;;;;;;4993653;28;20096;-74
2022/01/13 08:44:39;;;;;;;50.13;13.57;;;5.10;99.90;;;;;;4994223;28;20196;-73
2022/01/13 08:47:05;;;;;;;38.70;11.45;;;5.10;99.90;;;;;;4972377;28;20077;-74
2022/01/13 08:49:31;;;;;;;49.95;12.13;;;5.20;99.90;;;;;;4975336;28;20480;-74
2022/01/13 08:51:58;;;;;;;46.72;12.77;;;5.20;99.90;;;;;;4987161;28;20136;-73
2022/01/13 08:54:24;;;;;;;41.03;12.30;;;5.20;99.90;;;;;;4966483;28;20405;-78
2022/01/13 08:56:50;;;;;;;41.70;13.75;;;5.20;99.90;;;;;;4983302;28;20057;-78
2022/01/13 08:59:15;;;;;;;45.97;12.70;;;5.20;99.90;;;;;;4990944;28;20043;-82
2022/01/13 09:01:42;;;;;;;43.97;12.13;;;5.20;99.90;;;;;;4970761;28;20505;-77
2022/01/13 09:04:07;;;;;;;47.17;13.82;;;5.20;99.90;;;;;;4973657;28;20137;-75
2022/01/13 09:06:33;;;;;;;41.53;12.60;;;5.20;99.90;;;;;;4991885;28;20181;-74
2022/01/13 09:08:59;;;;;;;45.05;13.05;;;5.20;99.90;;;;;;4991084;28;20057;-74
2022/01/13 09:11:25;;;;;;;36.13;11.63;;;5.20;99.90;;;;;;4962037;28;20058;-78
2022/01/13 09:13:57;;;;;;;47.92;12.05;;;5.20;99.90;;;;;;4990011;28;20135;-77
2022/01/13 09:16:29;;;;;;;39.78;12.70;;;5.20;99.90;;;;;;4989674;28;20054;-76
2022/01/13 09:21:25;;;;;;;33.90;10.95;;;5.30;99.90;;;;;;4967790;28;20097;-78
2022/01/13 09:23:51;;;;;;;40.10;11.57;;;5.30;99.90;;;;;;4988506;28;20042;-76
2022/01/13 09:26:17;;;;;;;39.05;13.20;;;5.30;99.90;;;;;;4989268;28;20031;-76
2022/01/13 09:28:43;;;;;;;41.75;13.52;;;5.90;99.90;;;;;;4988400;28;20054;-75
2022/01/13 09:31:09;;;;;;;39.30;12.85;;;5.40;99.90;;;;;;4985611;28;20065;-76
2022/01/13 09:33:35;;;;;;;42.83;11.85;;;5.40;99.90;;;;;;4988685;28;20480;-77
2022/01/13 09:36:03;;;;;;;41.30;12.65;;;5.40;99.90;;;;;;4971925;28;20200;-77
2022/01/13 09:38:29;;;;;;;44.05;12.27;;;5.40;99.90;;;;;;4954844;28;20055;-77
2022/01/13 09:40:56;;;;;;;38.33;13.10;;;5.50;99.90;;;;;;4985895;28;20570;-76
2022/01/13 09:43:24;;;;;;;41.00;12.90;;;5.50;99.90;;;;;;4977178;28;20061;-75
2022/01/13 09:45:50;;;;;;;37.97;11.90;;;5.50;99.90;;;;;;5004172;28;20042;-73
2022/01/13 09:48:16;;;;;;;40.42;12.35;;;5.50;99.90;;;;;;4986397;28;20065;-73
2022/01/13 09:50:43;;;;;;;43.95;14.05;;;5.50;99.90;;;;;;4985836;28;20042;-73
2022/01/13 09:53:09;;;;;;;40.65;13.20;;;5.90;99.90;;;;;;4989388;28;20088;-75
2022/01/13 09:55:35;;;;;;;43.67;12.77;;;5.50;99.90;;;;;;4989119;28;20460;-74
2022/01/13 09:58:05;;;;;;;52.38;14.77;;;5.50;99.90;;;;;;4987323;28;20046;-76
2022/01/13 10:00:31;;;;;;;43.85;13.98;;;5.50;99.90;;;;;;4985930;28;20117;-75
2022/01/13 10:02:56;;;;;;;43.13;13.77;;;6.10;99.90;;;;;;4988718;28;20096;-73
2022/01/13 10:05:23;;;;;;;54.65;15.35;;;5.90;99.90;;;;;;5000372;28;20085;-73
2022/01/13 10:07:51;;;;;;;54.17;14.60;;;5.50;99.90;;;;;;4986565;28;20050;-78
2022/01/13 10:10:20;;;;;;;43.67;14.07;;;5.50;99.90;;;;;;4989191;28;20097;-74
2022/01/13 10:12:48;;;;;;;47.88;13.43;;;5.60;99.90;;;;;;4983297;28;20066;-74
2022/01/13 10:18:05;;;;;;;49.75;14.80;;;5.60;99.90;;;;;;4988072;28;20085;-76
2022/01/13 10:20:32;;;;;;;39.08;14.40;;;5.60;99.90;;;;;;4988457;28;20034;-71
2022/01/13 10:23:09;;;;;;;51.13;15.00;;;5.60;99.90;;;;;;4989725;28;20415;-74
2022/01/13 10:25:41;;;;;;;48.85;15.02;;;5.60;99.90;;;;;;4989918;28;20073;-72
2022/01/13 10:28:17;;;;;;;44.60;14.10;;;5.70;99.90;;;;;;4988264;28;20416;-70
2022/01/13 10:30:46;;;;;;;47.83;14.48;;;5.60;99.90;;;;;;4986778;28;20424;-73
2022/01/13 10:33:26;;;;;;;50.80;15.27;;;5.60;99.90;;;;;;4989038;28;20061;-70
2022/01/13 10:36:14;;;;;;;50.28;14.05;;;6.30;99.90;;;;;;4986677;28;20186;-73
2022/01/13 10:38:56;;;;;;;38.53;12.07;;;5.60;99.90;;;;;;4989247;28;20062;-73
2022/01/13 10:41:31;;;;;;;;;;;5.70;99.90;;;;;;4988815;28;20121;-73
2022/01/13 10:44:18;;;;;;;37.78;12.38;;;5.60;99.90;;;;;;4989777;28;19930;-71
2022/01/13 10:47:02;;;;;;;43.72;12.75;;;5.60;99.90;;;;;;4968331;28;20460;-72
2022/01/13 10:49:37;;;;;;;41.28;13.15;;;5.70;99.90;;;;;;4971386;28;20065;-75
2022/01/13 10:52:27;;;;;;;33.92;11.35;;;5.70;99.90;;;;;;4988749;28;20054;-72
2022/01/13 10:54:59;;;;;;;37.75;12.65;;;5.70;99.90;;;;;;4892079;29;20163;-71
2022/01/13 10:57:27;;;;;;;35.17;11.25;;;5.70;99.90;;;;;;4891663;29;20181;-70
2022/01/13 10:59:53;;;;;;;36.22;11.93;;;5.70;99.90;;;;;;4890942;29;20091;-71
2022/01/13 11:02:19;;;;;;;35.13;11.43;;;5.80;99.90;;;;;;4889889;29;20092;-71
2022/01/13 11:04:46;;;;;;;38.33;12.10;;;5.80;99.90;;;;;;4892239;29;20126;-70
2022/01/13 11:07:30;;;;;;;30.80;11.20;;;5.80;99.90;;;;;;4894356;29;20139;-73
2022/01/13 11:10:00;;;;;;;35.35;10.98;;;5.80;99.90;;;;;;4895357;29;20044;-71
2022/01/13 11:12:43;;;;;;;30.42;11.13;;;5.80;99.90;;;;;;4893765;29;20135;-73
2022/01/13 11:15:14;;;;;;;32.00;11.13;;;5.80;99.90;;;;;;4895910;29;20052;-74
2022/01/13 11:17:43;;;;;;;37.78;12.38;;;6.30;99.90;;;;;;4878993;29;20648;-72
2022/01/13 11:20:14;;;;;;;27.38;9.43;;;5.80;99.90;;;;;;4895413;29;20412;-72
2022/01/13 11:22:43;;;;;;;36.35;11.60;;;5.80;99.90;;;;;;4910574;29;20394;-73
2022/01/13 11:25:12;;;;;;;33.88;11.60;;;5.80;99.90;;;;;;4897958;29;20056;-73
2022/01/13 11:27:39;;;;;;;33.38;12.23;;;5.80;99.90;;;;;;4910204;29;20430;-76
2022/01/13 11:30:08;;;;;;;27.70;11.30;;;5.80;99.90;;;;;;4913334;29;20056;-73
2022/01/13 11:32:35;;;;;;;35.67;11.57;;;5.80;99.90;;;;;;4990767;28;20050;-75
2022/01/13 11:35:03;;;;;;;32.10;11.25;;;5.80;99.90;;;;;;5012473;28;20610;-77
2022/01/13 11:37:29;;;;;;;32.13;10.27;;;5.80;99.90;;;;;;4978987;28;20042;-78
2022/01/13 11:39:56;;;;;;;35.85;9.98;;;5.80;99.90;;;;;;5011898;28;20419;-75
2022/01/13 11:42:23;;;;;;;38.80;12.23;;;5.80;99.90;;;;;;5011557;28;20092;-75
2022/01/13 11:45:15;;;;;;;33.95;11.23;;;5.90;99.90;;;;;;5011707;28;20046;-80
2022/01/13 11:47:41;;;;;;;43.22;11.02;;;5.90;99.90;;;;;;5011679;28;20415;-75
2022/01/13 11:50:21;;;;;;;33.05;10.93;;;5.90;99.90;;;;;;5012041;28;20125;-71
2022/01/13 11:52:53;;;;;;;35.30;12.35;;;5.90;99.90;;;;;;5010234;28;20041;-72
2022/01/13 11:55:35;;;;;;;31.60;11.52;;;6.30;99.90;;;;;;4991577;28;20054;-74
2022/01/13 11:58:15;;;;;;;32.33;11.52;;;5.90;99.90;;;;;;5005648;28;20147;-72
2022/01/13 12:00:43;;;;;;;32.70;11.95;;;5.90;99.90;;;;;;5010464;28;20045;-71
2022/01/13 12:03:33;;;;;;;38.88;12.55;;;5.90;99.90;;;;;;5012810;28;20069;-73
2022/01/13 12:06:00;;;;;;;33.28;10.05;;;6.00;99.90;;;;;;4995347;28;20065;-77
2022/01/13 12:08:43;;;;;;;35.65;11.38;;;6.00;99.90;;;;;;5013181;28;20148;-81
2022/01/13 12:11:11;;;;;;;34.95;10.25;;;6.00;99.90;;;;;;5020099;28;20061;-69
2022/01/13 12:13:40;;;;;;;32.42;11.60;;;6.00;99.90;;;;;;5006058;28;20061;-69
2022/01/13 12:16:08;;;;;;;38.70;11.88;;;6.00;99.90;;;;;;5026303;28;20061;-71
2022/01/13 12:19:08;;;;;;;33.55;10.32;;;6.10;99.90;;;;;;5021701;28;20050;-73
2022/01/13 12:21:40;;;;;;;32.45;12.23;;;6.00;99.90;;;;;;4998114;28;20049;-75
2022/01/13 12:24:08;;;;;;;34.97;10.35;;;6.00;99.90;;;;;;4994207;28;20046;-73
2022/01/13 12:26:33;;;;;;;31.17;10.70;;;6.60;99.90;;;;;;5005963;28;20048;-72
2022/01/13 12:29:11;;;;;;;38.00;11.25;;;6.00;99.90;;;;;;4991266;28;20129;-70
2022/01/13 12:32:02;;;;;;;25.90;9.75;;;6.00;99.90;;;;;;5010872;28;20120;-72
2022/01/13 12:34:28;;;;;;;27.80;10.68;;;6.00;99.90;;;;;;5011673;28;20080;-70
2022/01/13 12:37:19;;;;;;;35.45;11.07;;;6.10;99.90;;;;;;5011790;28;20057;-69
2022/01/13 12:40:03;;;;;;;37.63;10.93;;;6.00;99.90;;;;;;5006848;28;20549;-69
2022/01/13 12:42:39;;;;;;;31.02;11.00;;;6.00;99.90;;;;;;4992859;28;20057;-71
2022/01/13 12:47:52;;;;;;;31.90;11.95;;;6.00;99.90;;;;;;4993885;28;20057;-71
2022/01/13 12:50:28;;;;;;;30.55;11.15;;;6.00;99.90;;;;;;5011707;28;20054;-71
2022/01/13 12:53:16;;;;;;;28.45;10.52;;;6.00;99.90;;;;;;5009436;28;20041;-71
2022/01/13 12:55:51;;;;;;;28.67;11.68;;;5.90;99.90;;;;;;5010956;28;20457;-72
2022/01/13 12:58:20;;;;;;;37.42;12.35;;;5.90;99.90;;;;;;5007648;28;20049;-67
2022/01/13 13:00:46;;;;;;;32.92;11.90;;;6.00;99.90;;;;;;4991317;28;20064;-70
2022/01/13 13:03:12;;;;;;;29.33;11.95;;;6.00;99.90;;;;;;4989158;28;20455;-73
2022/01/13 13:05:47;;;;;;;34.30;11.77;;;6.40;99.90;;;;;;5001397;28;20042;-74
2022/01/13 13:08:19;;;;;;;38.95;12.32;;;6.00;99.90;;;;;;4991732;28;20050;-72
2022/01/13 13:10:48;;;;;;;38.97;14.20;;;6.00;99.90;;;;;;4991045;28;20113;-73
2022/01/13 13:15:40;;;;;;;32.25;12.07;;;6.10;99.90;;;;;;5022486;23;20500;-72
2022/01/13 13:18:07;;;;;;;35.28;13.02;;;6.10;99.90;;;;;;4990809;28;20048;-74
2022/01/13 13:20:36;;;;;;;32.47;12.05;;;6.10;99.90;;;;;;5018117;28;20073;-73
2022/01/13 13:23:18;;;;;;;39.90;13.07;;;6.10;99.90;;;;;;5017070;28;20045;-71